Time;durP1;ratioP1;P1;durP2;ratioP2;P2;SDS_P1;SDS_P2;PMS_P1;PMS_P2;Temp;Humidity;BMP_temperature;BMP_pressure;BME280_temperature;BME280_humidity;BME280_pressure;Samples;Min_cycle;Max_cycle;Signal;HPM_P1;HPM_P2
2021/04/08 00:00:50;;;;;;;9.25;4.87;;;;;;;-0.06;55.24;96216.98;1755709;81;21080;-48
2021/04/08 00:03:17;;;;;;;7.12;4.37;;;;;;;-0.05;55.19;96217.38;1726465;80;21819;-49
2021/04/08 00:05:45;;;;;;;6.43;4.30;;;;;;;-0.03;55.12;96219.87;1739519;81;21143;-49
2021/04/08 00:08:13;;;;;;;6.12;4.22;;;;;;;-0.02;54.85;96216.00;1754551;81;21510;-49
2021/04/08 00:10:42;;;;;;;7.05;4.42;;;;;;;0.00;54.82;96218.50;1751092;81;21063;-49
2021/04/08 00:13:11;;;;;;;6.30;4.40;;;;;;;-0.01;54.90;96221.47;1737696;80;21056;-51
2021/04/08 00:15:39;;;;;;;6.75;4.08;;;;;;;-0.02;55.00;96221.10;1761333;81;21263;-50
2021/04/08 00:18:07;;;;;;;6.67;4.10;;;;;;;0.01;54.66;96224.42;1738606;82;21108;-50
2021/04/08 00:20:34;;;;;;;8.93;4.30;;;;;;;0.03;54.65;96229.02;1705005;83;21183;-49
2021/04/08 00:23:02;;;;;;;6.35;3.87;;;;;;;-0.01;54.73;96225.75;1720843;82;21060;-49
2021/04/08 00:25:30;;;;;;;4.90;3.47;;;;;;;0.02;54.61;96232.02;1705693;83;21080;-49
2021/04/08 00:27:58;;;;;;;5.60;3.40;;;;;;;-0.03;54.51;96220.70;1730950;81;21590;-50
2021/04/08 00:30:26;;;;;;;5.22;3.52;;;;;;;0.03;54.36;96228.57;1736413;81;21297;-48
2021/04/08 00:32:53;;;;;;;6.33;3.83;;;;;;;0.02;54.36;96224.38;1736879;82;21491;-52
2021/04/08 00:35:22;;;;;;;4.83;3.25;;;;;;;-0.07;54.50;96231.05;1764575;80;21059;-50
2021/04/08 00:37:49;;;;;;;5.92;3.08;;;;;;;-0.14;54.65;96232.16;1745529;82;21048;-50
2021/04/08 00:40:19;;;;;;;5.53;2.95;;;;;;;-0.14;54.64;96238.08;1734181;82;22079;-51
2021/04/08 00:42:47;;;;;;;4.60;2.98;;;;;;;-0.09;54.63;96239.21;1767204;81;21126;-50
2021/04/08 00:45:15;;;;;;;3.98;2.90;;;;;;;-0.06;54.45;96232.28;1765365;81;21104;-49
2021/04/08 00:47:43;;;;;;;3.95;3.10;;;;;;;-0.08;54.45;96244.26;1766737;81;21085;-50
2021/04/08 00:50:13;;;;;;;6.65;3.55;;;;;;;-0.10;54.82;96239.66;1718326;82;21077;-50
2021/04/08 00:52:42;;;;;;;8.05;3.35;;;;;;;-0.06;54.77;96241.66;1736554;81;21443;-51
2021/04/08 00:55:11;;;;;;;5.35;3.02;;;;;;;-0.01;54.64;96241.88;1706054;84;21076;-50
2021/04/08 00:57:39;;;;;;;4.55;3.40;;;;;;;0.06;54.60;96241.67;1732760;82;21064;-49
2021/04/08 01:00:09;;;;;;;6.08;3.47;;;;;;;0.07;54.49;96240.80;1713502;82;21221;-49
2021/04/08 01:02:36;;;;;;;4.65;3.08;;;;;;;0.14;54.39;96247.34;1739102;81;21136;-49
2021/04/08 01:05:06;;;;;;;4.33;3.17;;;;;;;0.21;54.42;96246.23;1729965;81;21384;-49
2021/04/08 01:07:37;;;;;;;5.50;3.37;;;;;;;0.33;54.06;96247.55;1763424;81;21187;-49
2021/04/08 01:10:10;;;;;;;4.50;3.20;;;;;;;0.38;53.83;96255.02;1737774;81;21149;-49
2021/04/08 01:12:38;;;;;;;3.92;3.27;;;;;;;0.38;53.82;96249.91;1736956;81;21132;-51
2021/04/08 01:15:10;;;;;;;3.70;2.90;;;;;;;0.37;53.92;96256.75;1754455;80;21130;-50
2021/04/08 01:17:48;;;;;;;3.83;3.00;;;;;;;0.36;53.75;96261.45;1722618;82;22298;-51
2021/04/08 01:21:04;;;;;;;6.78;3.42;;;;;;;0.39;54.02;96258.80;1765226;81;21575;-49
2021/04/08 01:24:16;;;;;;;5.33;3.05;;;;;;;0.44;53.88;96263.74;1749149;81;21489;-49
2021/04/08 01:27:18;;;;;;;6.03;3.25;;;;;;;0.55;53.63;96267.57;1706114;84;21093;-50
2021/04/08 01:30:00;;;;;;;3.20;2.60;;;;;;;0.64;53.42;96268.13;1737521;81;21124;-50
2021/04/08 01:32:29;;;;;;;5.22;3.22;;;;;;;0.64;53.48;96268.13;1723861;82;21364;-50
2021/04/08 01:34:59;;;;;;;3.33;2.43;;;;;;;0.64;53.48;96270.26;1754784;79;21178;-50
2021/04/08 01:37:30;;;;;;;69.22;34.43;;;;;;;0.64;53.53;96271.95;1720358;82;21401;-52
2021/04/08 01:39:57;;;;;;;42.05;21.40;;;;;;;0.67;53.88;96275.23;1766804;81;21559;-49
2021/04/08 01:42:26;;;;;;;13.78;5.85;;;;;;;0.76;53.86;96278.33;1736490;82;21111;-50
2021/04/08 01:44:56;;;;;;;9.30;4.55;;;;;;;0.87;53.33;96274.94;1735484;82;21225;-50
2021/04/08 01:47:26;;;;;;;5.60;2.70;;;;;;;0.92;53.32;96276.88;1763608;81;21134;-51
2021/04/08 01:50:04;;;;;;;3.77;2.47;;;;;;;1.01;53.22;96284.21;1757788;80;21065;-50
2021/04/08 01:52:33;;;;;;;3.83;2.90;;;;;;;1.16;53.02;96287.09;1756680;81;21059;-50
2021/04/08 01:55:01;;;;;;;3.42;2.80;;;;;;;1.28;52.60;96289.16;1765879;81;21120;-50
2021/04/08 01:57:29;;;;;;;3.90;2.85;;;;;;;1.33;52.28;96298.76;1752583;81;21606;-52
2021/04/08 01:59:57;;;;;;;3.62;2.50;;;;;;;1.34;51.98;96299.16;1755167;81;21193;-49
2021/04/08 02:02:25;;;;;;;2.75;2.45;;;;;;;1.30;52.02;96300.18;1755728;81;21180;-50
2021/04/08 02:04:53;;;;;;;2.87;2.33;;;;;;;1.33;51.88;96301.77;1737875;81;21055;-50
2021/04/08 02:07:22;;;;;;;2.83;2.30;;;;;;;1.30;51.66;96296.34;1727070;82;21616;-49
2021/04/08 02:09:51;;;;;;;4.30;2.47;;;;;;;1.24;51.94;96301.23;1758586;81;22377;-49
2021/04/08 02:12:19;;;;;;;4.80;2.60;;;;;;;1.12;52.06;96299.16;1738290;81;21530;-50
2021/04/08 02:14:47;;;;;;;4.78;2.55;;;;;;;1.05;52.14;96312.61;1730821;82;21178;-49
2021/04/08 02:17:17;;;;;;;3.62;2.80;;;;;;;1.00;52.20;96311.92;1697281;82;21203;-49
2021/04/08 02:19:47;;;;;;;3.35;2.55;;;;;;;1.03;52.41;96312.27;1744061;81;21179;-49
2021/04/08 02:22:14;;;;;;;3.55;2.83;;;;;;;1.09;52.33;96317.16;1731382;81;21188;-49
2021/04/08 02:24:44;;;;;;;;;;;;;;;1.19;51.99;96315.91;1758420;81;21483;-52
2021/04/08 02:27:13;;;;;;;4.58;3.00;;;;;;;1.27;51.79;96315.62;1764510;81;20248;-49
2021/04/08 02:29:41;;;;;;;3.30;2.50;;;;;;;1.28;51.48;96317.27;1737702;81;21211;-50
2021/04/08 02:32:09;;;;;;;3.50;2.72;;;;;;;1.28;51.41;96315.58;1738330;81;21168;-52
2021/04/08 02:34:36;;;;;;;3.17;2.35;;;;;;;1.28;51.25;96316.00;1756637;81;21206;-49
2021/04/08 02:37:04;;;;;;;3.40;2.50;;;;;;;1.18;50.41;96314.69;1734731;82;21245;-50
2021/04/08 02:39:32;;;;;;;3.10;2.33;;;;;;;1.01;50.95;96317.42;1751427;81;21161;-49
2021/04/08 02:41:59;;;;;;;4.20;2.30;;;;;;;0.94;51.45;96316.42;1737517;80;21206;-52
2021/04/08 02:44:27;;;;;;;3.47;2.47;;;;;;;0.98;51.43;96316.26;1738815;81;21601;-49
2021/04/08 02:46:55;;;;;;;4.53;2.90;;;;;;;1.08;51.33;96318.03;1747177;81;21410;-49
2021/04/08 02:49:22;;;;;;;3.42;2.37;;;;;;;1.08;51.23;96323.14;1764259;81;21100;-50
2021/04/08 02:51:56;;;;;;;3.75;2.60;;;;;;;1.01;51.32;96319.98;1707804;82;21104;-49
2021/04/08 02:54:49;;;;;;;3.92;2.65;;;;;;;0.86;51.67;96320.10;1751108;81;21055;-49
2021/04/08 02:57:24;;;;;;;4.45;2.47;;;;;;;0.71;52.00;96321.94;1707441;83;21140;-49
2021/04/08 02:59:55;;;;;;;3.22;2.25;;;;;;;0.62;52.54;96317.14;1765009;81;22087;-49
2021/04/08 03:02:27;;;;;;;4.67;2.80;;;;;;;0.57;52.64;96322.86;1765495;79;21085;-49
2021/04/08 03:04:57;;;;;;;3.98;2.80;;;;;;;0.54;52.99;96326.34;1758437;81;21547;-49
2021/04/08 03:07:32;;;;;;;3.33;2.67;;;;;;;0.46;53.13;96329.61;1756624;81;21564;-49
2021/04/08 03:10:04;;;;;;;4.50;2.87;;;;;;;0.40;53.34;96331.12;1765485;81;21063;-49
2021/04/08 03:12:32;;;;;;;3.17;2.52;;;;;;;0.35;53.51;96332.09;1751108;81;21466;-49
2021/04/08 03:15:02;;;;;;;3.58;2.50;;;;;;;0.29;53.45;96331.47;1711712;81;21848;-49
2021/04/08 03:17:34;;;;;;;3.08;2.65;;;;;;;0.21;53.65;96334.72;1747125;80;21085;-50
2021/04/08 03:20:04;;;;;;;5.67;2.80;;;;;;;0.13;53.70;96330.72;1755226;81;21090;-49
2021/04/08 03:22:32;;;;;;;3.10;2.80;;;;;;;0.03;53.93;96336.16;1713726;82;21063;-49
2021/04/08 03:25:00;;;;;;;4.33;2.63;;;;;;;-0.07;54.12;96339.45;1740805;80;21368;-50
2021/04/08 03:27:29;;;;;;;3.25;2.42;;;;;;;-0.13;54.51;96343.47;1753574;81;21462;-49
2021/04/08 03:29:57;;;;;;;3.60;2.70;;;;;;;-0.23;54.77;96350.16;1758396;79;21146;-50
2021/04/08 03:32:25;;;;;;;3.73;2.80;;;;;;;-0.31;54.94;96347.43;1769014;79;21165;-50
2021/04/08 03:34:53;;;;;;;3.37;2.47;;;;;;;-0.38;55.12;96348.92;1710544;82;21077;-49
2021/04/08 03:37:21;;;;;;;3.10;2.20;;;;;;;-0.45;55.29;96353.80;1751319;81;21206;-50
2021/04/08 03:39:49;;;;;;;5.75;2.67;;;;;;;-0.48;55.40;96353.88;1752303;81;21159;-49
2021/04/08 03:42:18;;;;;;;3.50;2.62;;;;;;;-0.52;55.47;96359.14;1705108;81;21563;-49
2021/04/08 03:44:48;;;;;;;4.67;3.17;;;;;;;-0.52;55.28;96357.87;1755998;81;21091;-50
2021/04/08 03:47:15;;;;;;;5.97;3.27;;;;;;;-0.52;55.49;96361.70;1746619;80;21178;-50
2021/04/08 03:49:43;;;;;;;4.47;3.20;;;;;;;-0.47;55.23;96366.20;1738554;81;21204;-52
2021/04/08 03:52:11;;;;;;;5.90;3.55;;;;;;;-0.39;55.05;96359.98;1731468;82;21079;-50
2021/04/08 03:54:39;;;;;;;8.18;2.98;;;;;;;-0.34;54.93;96357.30;1759896;80;21140;-50
2021/04/08 03:57:12;;;;;;;4.12;3.02;;;;;;;-0.29;54.75;96361.81;1736315;81;21913;-54
2021/04/08 03:59:40;;;;;;;6.22;3.35;;;;;;;-0.22;54.64;96359.91;1757272;80;21164;-50
2021/04/08 04:02:09;;;;;;;5.37;3.02;;;;;;;-0.09;54.70;96366.28;1737534;81;21568;-50
2021/04/08 04:04:37;;;;;;;4.50;3.27;;;;;;;0.20;54.37;96376.00;1734943;81;26769;-50
2021/04/08 04:07:05;;;;;;;5.67;3.33;;;;;;;0.53;53.56;96375.30;1731107;81;21202;-50
2021/04/08 04:09:33;;;;;;;6.40;3.45;;;;;;;0.95;52.70;96376.86;1729640;81;21096;-51
2021/04/08 04:12:01;;;;;;;7.60;4.30;;;;;;;1.39;51.45;96375.68;1725713;82;21064;-49
2021/04/08 04:14:29;;;;;;;8.90;4.70;;;;;;;1.74;50.70;96380.72;1727752;82;21663;-49
2021/04/08 04:16:58;;;;;;;20.08;11.00;;;;;;;2.10;50.20;96380.62;1745758;82;21163;-49
2021/04/08 04:19:27;;;;;;;25.75;9.98;;;;;;;2.56;48.97;96379.55;1738232;80;21156;-51
2021/04/08 04:21:56;;;;;;;12.25;5.58;;;;;;;2.89;47.71;96372.59;1743123;81;21236;-53
2021/04/08 04:24:24;;;;;;;9.00;5.78;;;;;;;3.05;46.56;96373.23;1744597;81;21062;-49
2021/04/08 04:26:51;;;;;;;8.25;4.80;;;;;;;3.20;46.05;96380.69;1728789;82;21150;-49
2021/04/08 04:29:19;;;;;;;9.03;5.97;;;;;;;3.32;45.80;96381.41;1739541;82;21171;-49
2021/04/08 04:31:47;;;;;;;11.28;5.97;;;;;;;3.63;45.24;96378.27;1724509;82;21152;-49
2021/04/08 04:34:15;;;;;;;10.70;5.20;;;;;;;3.98;44.59;96370.68;1703992;83;21513;-50
2021/04/08 04:36:42;;;;;;;6.60;4.67;;;;;;;4.43;43.43;96378.78;1741079;82;21055;-49
2021/04/08 04:39:10;;;;;;;8.58;4.62;;;;;;;4.74;42.36;96372.13;1720002;82;21199;-49
2021/04/08 04:41:38;;;;;;;8.30;4.70;;;;;;;5.00;41.86;96381.51;1731519;82;21180;-48
2021/04/08 04:44:06;;;;;;;10.48;4.85;;;;;;;5.38;41.05;96378.67;1742045;82;21128;-48
2021/04/08 04:46:35;;;;;;;5.65;4.37;;;;;;;5.74;40.64;96379.74;1736389;82;21088;-48
2021/04/08 04:49:03;;;;;;;9.65;5.78;;;;;;;6.21;39.20;96381.44;1714481;82;21087;-49
2021/04/08 04:51:31;;;;;;;10.35;7.40;;;;;;;6.27;38.80;96381.56;1714124;82;23542;-49
2021/04/08 04:53:59;;;;;;;11.33;7.53;;;;;;;6.42;39.10;96381.97;1737506;82;21081;-49
2021/04/08 04:56:28;;;;;;;12.43;6.58;;;;;;;6.77;38.75;96382.95;1724749;82;21111;-49
2021/04/08 04:58:56;;;;;;;12.30;6.10;;;;;;;7.12;38.04;96382.64;1717688;82;21139;-51
2021/04/08 05:01:25;;;;;;;11.45;5.62;;;;;;;7.46;36.64;96383.16;1728932;82;23079;-50
2021/04/08 05:03:53;;;;;;;9.00;5.30;;;;;;;7.63;36.33;96391.17;1749058;80;21160;-50
2021/04/08 05:06:21;;;;;;;7.62;4.40;;;;;;;7.83;36.01;96386.49;1750822;81;21592;-50
2021/04/08 05:08:48;;;;;;;7.28;4.50;;;;;;;7.88;35.60;96393.05;1742494;82;21106;-50
2021/04/08 05:11:17;;;;;;;5.83;4.20;;;;;;;7.95;35.61;96389.61;1737506;82;21577;-51
2021/04/08 05:13:47;;;;;;;6.12;3.62;;;;;;;8.28;35.26;96391.79;1742374;80;21183;-50
2021/04/08 05:16:14;;;;;;;14.10;4.08;;;;;;;8.63;34.44;96389.16;1724382;83;21362;-50
2021/04/08 05:18:43;;;;;;;7.17;3.90;;;;;;;8.86;33.42;96388.10;1719915;81;21514;-50
2021/04/08 05:21:13;;;;;;;4.30;3.30;;;;;;;9.17;33.60;96394.63;1746948;82;21497;-50
2021/04/08 05:23:41;;;;;;;6.78;3.83;;;;;;;9.77;32.46;96389.20;1731006;81;21091;-50
2021/04/08 05:26:10;;;;;;;7.10;3.90;;;;;;;10.25;32.00;96389.70;1729552;83;21056;-50
2021/04/08 05:28:39;;;;;;;8.75;3.35;;;;;;;10.61;30.53;96396.58;1719142;82;21370;-50
2021/04/08 05:31:08;;;;;;;6.50;4.33;;;;;;;10.66;30.54;96393.17;1718240;83;21591;-50
2021/04/08 05:33:35;;;;;;;5.00;3.50;;;;;;;10.72;29.73;96396.25;1712097;81;21152;-50
2021/04/08 05:36:06;;;;;;;6.47;3.70;;;;;;;10.69;28.95;96392.13;1739309;81;21168;-49
2021/04/08 05:38:33;;;;;;;3.95;3.37;;;;;;;10.67;29.79;96401.33;1759017;81;21073;-50
2021/04/08 05:41:02;;;;;;;5.47;3.90;;;;;;;11.09;29.44;96402.11;1759010;80;21351;-49
2021/04/08 05:43:30;;;;;;;4.97;3.50;;;;;;;11.66;27.94;96393.87;1758710;81;21081;-49
2021/04/08 05:45:58;;;;;;;4.95;3.50;;;;;;;11.77;27.94;96399.03;1746099;81;21214;-50
2021/04/08 05:48:27;;;;;;;3.87;3.40;;;;;;;11.87;28.00;96403.52;1750305;80;21139;-52
2021/04/08 05:50:55;;;;;;;7.30;3.15;;;;;;;12.33;26.96;96395.98;1727802;82;21175;-51
2021/04/08 05:53:23;;;;;;;7.65;3.83;;;;;;;12.34;26.72;96396.34;1742070;82;21285;-50
2021/04/08 05:55:50;;;;;;;5.25;3.58;;;;;;;12.40;27.38;96407.56;1745676;82;21139;-50
2021/04/08 05:58:18;;;;;;;4.60;3.33;;;;;;;12.93;26.75;96398.90;1729802;82;21148;-50
2021/04/08 06:00:46;;;;;;;3.67;3.00;;;;;;;13.28;26.09;96408.14;1750530;82;21156;-50
2021/04/08 06:03:14;;;;;;;4.05;3.15;;;;;;;13.53;24.92;96413.42;1745787;81;21062;-50
2021/04/08 06:05:42;;;;;;;4.47;3.40;;;;;;;13.35;25.43;96411.89;1724272;81;21537;-52
2021/04/08 06:08:09;;;;;;;3.72;3.10;;;;;;;13.40;25.45;96405.00;1743592;80;21504;-50
2021/04/08 06:10:39;;;;;;;5.87;3.27;;;;;;;13.36;24.45;96412.26;1740206;81;21140;-50
2021/04/08 06:13:07;;;;;;;6.25;3.80;;;;;;;13.03;25.26;96404.17;1745114;80;21194;-50
2021/04/08 06:15:35;;;;;;;3.70;3.15;;;;;;;12.65;25.59;96417.28;1746023;81;26445;-50
2021/04/08 06:18:05;;;;;;;6.85;3.15;;;;;;;12.58;25.33;96418.25;1750570;80;21259;-50
2021/04/08 06:20:32;;;;;;;4.00;3.08;;;;;;;12.50;25.43;96421.47;1747753;82;21167;-50
2021/04/08 06:23:04;;;;;;;4.47;3.65;;;;;;;12.24;25.09;96420.15;1732395;81;21195;-50
2021/04/08 06:25:33;;;;;;;4.47;3.10;;;;;;;11.66;25.98;96420.31;1752687;81;21692;-50
2021/04/08 06:28:03;;;;;;;4.53;3.02;;;;;;;11.35;26.90;96421.39;1742985;82;21092;-50
2021/04/08 06:30:33;;;;;;;3.47;2.80;;;;;;;11.46;26.59;96423.16;1725981;82;21384;-49
2021/04/08 06:33:01;;;;;;;5.42;3.27;;;;;;;11.40;26.24;96429.66;1751185;81;26734;-51
2021/04/08 06:35:30;;;;;;;12.75;6.08;;;;;;;11.43;26.40;96424.23;1736274;81;21472;-50
2021/04/08 06:37:59;;;;;;;5.60;3.50;;;;;;;11.64;26.18;96430.00;1728936;81;21497;-50
2021/04/08 06:40:27;;;;;;;6.20;3.47;;;;;;;11.84;26.50;96428.00;1741924;80;21108;-49
2021/04/08 06:42:55;;;;;;;3.50;3.17;;;;;;;12.22;25.85;96421.56;1752664;81;21205;-50
2021/04/08 06:45:24;;;;;;;7.53;3.25;;;;;;;12.13;25.38;96430.09;1740336;80;21198;-50
2021/04/08 06:48:06;;;;;;;6.62;3.62;;;;;;;11.96;25.51;96434.85;1705873;81;21080;-50
2021/04/08 06:50:39;;;;;;;7.20;3.30;;;;;;;12.11;25.81;96438.50;1750377;81;21083;-51
2021/04/08 06:53:08;;;;;;;6.83;3.40;;;;;;;12.13;25.24;96440.50;1747461;81;21164;-50
2021/04/08 06:55:37;;;;;;;4.12;3.25;;;;;;;12.03;25.01;96439.09;1736584;80;22160;-51
2021/04/08 06:58:05;;;;;;;4.10;3.70;;;;;;;12.09;25.22;96441.22;1706287;82;21159;-50
2021/04/08 07:00:34;;;;;;;4.05;2.52;;;;;;;12.60;25.29;96438.92;1718021;83;21056;-50
2021/04/08 07:03:04;;;;;;;4.40;3.98;;;;;;;13.46;23.54;96444.06;1732762;82;21057;-50
2021/04/08 07:05:32;;;;;;;6.42;4.83;;;;;;;13.41;22.95;96445.75;1748006;80;21507;-50
2021/04/08 07:08:00;;;;;;;5.37;3.65;;;;;;;12.89;23.89;96441.30;1752162;80;21195;-50
2021/04/08 07:10:29;;;;;;;4.80;3.60;;;;;;;12.91;24.46;96459.41;1756453;81;21170;-49
2021/04/08 07:12:58;;;;;;;3.27;2.80;;;;;;;13.54;23.09;96453.36;1756330;81;21167;-49
2021/04/08 07:15:26;;;;;;;3.92;3.40;;;;;;;14.56;22.05;96451.11;1739886;81;21162;-49
2021/04/08 07:17:55;;;;;;;3.77;2.90;;;;;;;15.05;20.14;96455.88;1744423;81;21170;-49
2021/04/08 07:20:24;;;;;;;3.62;3.30;;;;;;;15.02;20.76;96456.14;1761718;80;21162;-49
2021/04/08 07:23:10;;;;;;;2.77;2.45;;;;;;;15.60;20.21;96457.31;1761596;80;21190;-50
2021/04/08 07:26:07;;;;;;;4.50;2.60;;;;;;;16.32;18.82;96452.33;1761473;80;21052;-51
2021/04/08 07:28:42;;;;;;;2.70;2.45;;;;;;;16.19;18.71;96465.76;1731575;82;21056;-50
2021/04/08 07:31:24;;;;;;;3.65;2.60;;;;;;;16.27;18.72;96481.23;1747806;80;21133;-50
2021/04/08 07:33:57;;;;;;;3.27;2.25;;;;;;;16.79;18.98;96470.94;1735732;79;21355;-50
2021/04/08 07:36:32;;;;;;;3.67;2.35;;;;;;;17.50;18.13;96473.65;1720508;83;21588;-49
2021/04/08 07:39:07;;;;;;;2.45;2.25;;;;;;;17.91;17.55;96478.69;1692494;83;21493;-50
2021/04/08 07:41:36;;;;;;;2.12;1.92;;;;;;;18.67;16.85;96478.27;1692206;82;21195;-50
2021/04/08 07:44:09;;;;;;;2.58;2.37;;;;;;;19.08;16.42;96473.58;1691724;83;21069;-50
2021/04/08 07:46:42;;;;;;;2.55;2.35;;;;;;;19.33;16.33;96482.27;1720638;83;21208;-50
2021/04/08 07:49:31;;;;;;;2.45;2.25;;;;;;;19.07;16.21;96483.25;1720297;82;21060;-49
2021/04/08 07:52:25;;;;;;;3.20;2.60;;;;;;;18.53;16.67;96491.52;1716107;82;21584;-50
2021/04/08 07:55:03;;;;;;;2.77;2.40;;;;;;;17.58;16.80;96485.03;1687890;84;21076;-50
2021/04/08 07:57:42;;;;;;;5.42;2.52;;;;;;;16.33;18.12;96495.87;1721446;81;21083;-50
2021/04/08 08:00:44;;;;;;;5.15;2.90;;;;;;;16.27;18.54;96496.45;1822720;78;23958;-49
2021/04/08 08:03:26;;;;;;;8.33;2.75;;;;;;;15.73;17.96;96492.80;1793337;79;21053;-50
2021/04/08 08:06:01;;;;;;;6.37;2.52;;;;;;;15.04;18.81;96499.94;1791423;78;21190;-49
2021/04/08 08:08:38;;;;;;;2.35;2.05;;;;;;;14.49;19.33;96499.09;1838438;77;21136;-50
2021/04/08 08:11:11;;;;;;;4.12;3.65;;;;;;;14.04;19.95;96502.15;1816970;77;21595;-49
2021/04/08 08:13:55;;;;;;;3.22;2.67;;;;;;;13.72;20.25;96505.73;1792031;78;21049;-50
2021/04/08 08:16:31;;;;;;;3.55;2.35;;;;;;;12.95;20.39;96505.06;1820926;78;21184;-51
2021/04/08 08:18:59;;;;;;;2.95;2.33;;;;;;;12.18;21.95;96512.48;1783735;79;21359;-49
2021/04/08 08:21:35;;;;;;;;;;;;;;;12.48;21.29;96505.80;1786393;80;21080;-50
2021/04/08 08:24:11;;;;;;;4.60;2.37;;;;;;;12.90;21.05;96509.82;1783857;80;20235;-50
2021/04/08 08:26:43;;;;;;;2.90;2.40;;;;;;;13.54;21.28;96506.80;1783877;80;21048;-49
2021/04/08 08:29:18;;;;;;;5.00;2.85;;;;;;;14.69;20.46;96511.75;1755546;80;21053;-50
2021/04/08 08:31:54;;;;;;;4.42;3.00;;;;;;;15.71;19.85;96504.71;1756384;80;22111;-50
2021/04/08 08:34:28;;;;;;;5.97;2.47;;;;;;;16.54;19.15;96507.87;1752757;81;21088;-50
2021/04/08 08:37:09;;;;;;;2.60;2.40;;;;;;;16.49;18.00;96510.11;1753265;80;21128;-51
2021/04/08 08:39:42;;;;;;;3.42;3.12;;;;;;;15.25;19.17;96511.06;1752750;81;21152;-50
2021/04/08 08:42:13;;;;;;;6.33;2.80;;;;;;;14.01;20.81;96520.18;1752830;81;21133;-50
2021/04/08 08:44:43;;;;;;;4.37;2.85;;;;;;;12.32;21.69;96529.14;1752801;81;21199;-50
2021/04/08 08:47:30;;;;;;;4.58;3.17;;;;;;;11.59;22.83;96529.10;1756481;80;21521;-50
2021/04/08 08:50:03;;;;;;;8.18;3.35;;;;;;;11.29;23.65;96528.34;1783905;80;21058;-50
2021/04/08 08:52:37;;;;;;;6.62;4.03;;;;;;;11.04;24.23;96534.87;1783753;80;21169;-50
2021/04/08 08:55:14;;;;;;;5.33;3.60;;;;;;;11.05;24.09;96536.54;1755532;80;21200;-50
2021/04/08 08:57:44;;;;;;;;;;;;;;;10.74;24.82;96535.34;1786313;80;21198;-49
2021/04/08 09:00:15;;;;;;;4.72;2.72;;;;;;;10.41;24.26;96524.30;1794582;79;20210;-49
2021/04/08 09:02:45;;;;;;;6.08;3.37;;;;;;;9.67;25.79;96524.19;1797918;79;21040;-49
2021/04/08 09:05:18;;;;;;;4.70;2.90;;;;;;;9.19;26.19;96528.66;1798077;79;21469;-49
2021/04/08 09:07:48;;;;;;;5.22;3.10;;;;;;;8.57;27.07;96530.05;1797959;79;21112;-50
2021/04/08 09:10:31;;;;;;;3.42;2.90;;;;;;;8.90;27.91;96526.67;1794113;79;21379;-49
2021/04/08 09:12:58;;;;;;;6.03;2.80;;;;;;;9.74;27.05;96524.15;1797349;79;21164;-50
2021/04/08 09:15:27;;;;;;;3.10;2.45;;;;;;;10.14;26.47;96527.39;1746680;79;21604;-49
2021/04/08 09:17:59;;;;;;;3.35;2.72;;;;;;;9.92;26.62;96528.06;1797333;78;21092;-49
2021/04/08 09:20:27;;;;;;;2.92;2.40;;;;;;;9.45;27.53;96533.87;1797414;79;21103;-50
2021/04/08 09:22:59;;;;;;;4.55;2.30;;;;;;;9.13;28.23;96535.56;1748027;79;21206;-50
2021/04/08 09:25:40;;;;;;;3.15;2.55;;;;;;;9.05;27.21;96531.34;1796971;79;21069;-50
2021/04/08 09:28:12;;;;;;;2.17;1.95;;;;;;;9.41;26.38;96535.85;1797483;79;21081;-49
2021/04/08 09:33:48;;;;;;;8.25;3.10;;;;;;;10.48;25.22;96538.02;1797367;79;21044;-50
2021/04/08 09:36:27;;;;;;;6.30;2.87;;;;;;;9.98;25.84;96517.73;1797409;79;21416;-50
2021/04/08 09:39:03;;;;;;;3.55;2.58;;;;;;;9.30;27.32;96532.67;1797329;79;21144;-49
2021/04/08 09:41:44;;;;;;;5.33;3.27;;;;;;;9.57;27.32;96535.63;1797213;79;21108;-49
2021/04/08 09:44:14;;;;;;;4.95;2.98;;;;;;;9.70;28.00;96534.34;1797518;79;21469;-49
2021/04/08 09:46:50;;;;;;;5.75;2.65;;;;;;;9.95;26.62;96525.27;1797437;79;21033;-51
2021/04/08 09:49:41;;;;;;;3.37;2.60;;;;;;;10.26;26.84;96530.06;1791441;79;21570;-49
2021/04/08 09:52:11;;;;;;;5.08;2.80;;;;;;;10.55;25.50;96528.52;1772967;81;21047;-50
2021/04/08 09:54:47;;;;;;;5.85;2.95;;;;;;;10.51;25.11;96529.21;1714412;82;21128;-50
2021/04/08 09:57:36;;;;;;;5.35;2.35;;;;;;;9.81;26.83;96517.60;1744648;81;21174;-50
2021/04/08 10:00:14;;;;;;;5.05;2.70;;;;;;;9.51;26.85;96529.12;1767397;81;21616;-49
2021/04/08 10:03:05;;;;;;;3.80;2.55;;;;;;;9.31;27.16;96530.90;1759577;81;21218;-50
2021/04/08 10:05:40;;;;;;;5.87;3.02;;;;;;;9.12;28.48;96524.35;1763653;80;21151;-50
2021/04/08 10:08:09;;;;;;;3.60;2.80;;;;;;;9.49;28.22;96528.40;1763735;81;21545;-50
2021/04/08 10:10:43;;;;;;;4.55;3.22;;;;;;;9.69;27.79;96534.82;1731781;82;21134;-51
2021/04/08 10:13:29;;;;;;;4.35;3.60;;;;;;;9.35;28.40;96543.55;1771026;80;21025;-51
2021/04/08 10:16:10;;;;;;;2.58;2.20;;;;;;;9.37;28.74;96539.12;1785066;80;21350;-50
2021/04/08 10:18:40;;;;;;;5.97;2.50;;;;;;;9.42;27.32;96538.78;1784811;80;21124;-51
2021/04/08 10:21:18;;;;;;;5.97;2.87;;;;;;;9.50;27.58;96549.94;1785138;80;21453;-50
2021/04/08 10:23:48;;;;;;;3.20;2.90;;;;;;;9.81;28.30;96543.52;1773641;80;21083;-50
2021/04/08 10:26:31;;;;;;;3.40;2.90;;;;;;;9.88;27.50;96542.63;1731788;82;21597;-49
2021/04/08 10:29:01;;;;;;;4.37;2.95;;;;;;;9.29;28.67;96543.13;1710117;81;22488;-50
2021/04/08 10:31:33;;;;;;;2.87;2.67;;;;;;;8.80;29.66;96541.99;1782605;80;21509;-50
2021/04/08 10:34:09;;;;;;;3.85;3.00;;;;;;;8.44;29.36;96545.51;1762639;81;21490;-50
2021/04/08 10:36:49;;;;;;;4.85;2.92;;;;;;;8.25;29.84;96554.01;1732795;81;21123;-50
2021/04/08 10:39:22;;;;;;;6.62;3.52;;;;;;;8.37;30.68;96521.39;1763912;81;21113;-50
2021/04/08 10:42:12;;;;;;;4.22;2.55;;;;;;;8.25;31.72;96554.83;1769598;80;21205;-51
2021/04/08 10:44:46;;;;;;;3.67;2.87;;;;;;;8.38;31.43;96542.45;1763927;81;21096;-51
2021/04/08 10:47:20;;;;;;;6.22;3.02;;;;;;;8.10;31.83;96537.22;1760722;80;21183;-49
2021/04/08 10:50:01;;;;;;;3.37;2.87;;;;;;;8.25;31.80;96535.91;1731908;82;21098;-51
2021/04/08 10:52:38;;;;;;;3.08;2.47;;;;;;;8.48;31.46;96559.07;1763782;81;21043;-49
2021/04/08 10:55:10;;;;;;;3.33;2.80;;;;;;;8.50;30.76;96541.70;1731705;82;21443;-50
2021/04/08 10:57:41;;;;;;;6.12;2.40;;;;;;;8.47;30.57;96537.56;1732287;81;21536;-50
2021/04/08 11:00:12;;;;;;;2.92;2.55;;;;;;;8.08;31.25;96546.01;1763548;81;21121;-50
2021/04/08 11:02:42;;;;;;;2.62;2.42;;;;;;;7.88;30.70;96535.59;1778414;80;21052;-50
2021/04/08 11:05:20;;;;;;;3.67;2.70;;;;;;;7.90;31.57;96544.90;1763685;81;21059;-50
2021/04/08 11:07:52;;;;;;;2.63;1.97;;;;;;;7.93;31.22;96538.26;1732394;81;22291;-50
2021/04/08 11:10:24;;;;;;;2.50;2.10;;;;;;;7.93;28.97;96546.01;1763632;81;21048;-49
2021/04/08 11:12:56;;;;;;;5.80;2.85;;;;;;;7.87;29.74;96544.27;1747477;80;21057;-50
2021/04/08 11:15:28;;;;;;;2.77;2.52;;;;;;;7.70;30.67;96539.64;1763662;81;21226;-50
2021/04/08 11:18:00;;;;;;;3.25;2.45;;;;;;;8.00;30.70;96552.10;1781620;80;21131;-50
2021/04/08 11:20:40;;;;;;;2.77;2.20;;;;;;;8.43;29.53;96537.84;1763754;81;21563;-51
2021/04/08 11:23:08;;;;;;;;;;;;;;;8.70;28.35;96541.75;1733853;81;21168;-50
2021/04/08 11:25:39;;;;;;;4.78;2.60;;;;;;;8.69;28.06;96556.89;1763775;80;20232;-52
2021/04/08 11:28:08;;;;;;;4.05;2.80;;;;;;;8.62;29.37;96544.00;1752107;82;21129;-50
2021/04/08 11:30:39;;;;;;;;;;;;;;;8.50;30.23;96542.98;1741672;82;21175;-50
2021/04/08 11:33:07;;;;;;;;;;;;;;;8.34;29.83;96543.55;1776121;80;20681;-50
2021/04/08 11:35:44;;;;;;;3.55;2.20;;;;;;;8.18;29.65;96533.35;1783163;80;20231;-50
2021/04/08 11:38:19;;;;;;;3.70;2.58;;;;;;;8.01;29.78;96552.02;1783099;80;21057;-50
2021/04/08 11:41:06;;;;;;;8.15;2.65;;;;;;;7.79;30.86;96555.52;1783066;80;21144;-49
2021/04/08 11:43:45;;;;;;;7.35;3.42;;;;;;;7.64;32.86;96578.74;1783089;80;21461;-49
2021/04/08 11:46:29;;;;;;;4.50;2.50;;;;;;;7.37;34.54;96576.03;1783117;80;22090;-49
2021/04/08 11:48:59;;;;;;;2.72;2.50;;;;;;;7.21;35.05;96567.52;1782972;80;21096;-50
2021/04/08 11:51:31;;;;;;;4.25;2.72;;;;;;;7.54;34.95;96568.59;1783043;80;21129;-51
2021/04/08 11:54:11;;;;;;;4.33;2.75;;;;;;;8.13;32.27;96562.53;1754558;80;21076;-50
2021/04/08 11:56:40;;;;;;;3.30;2.42;;;;;;;8.66;31.04;96556.61;1776544;80;21116;-49
2021/04/08 11:59:23;;;;;;;3.25;2.70;;;;;;;8.69;29.69;96554.78;1763326;80;21270;-49
2021/04/08 12:01:54;;;;;;;5.55;2.77;;;;;;;8.42;30.25;96562.00;1777633;80;21049;-51
2021/04/08 12:04:25;;;;;;;4.17;3.10;;;;;;;7.97;31.50;96568.61;1782144;80;21041;-50